Time;durP1;ratioP1;P1;durP2;ratioP2;P2;SDS_P1;SDS_P2;PMS_P1;PMS_P2;Temp;Humidity;BMP_temperature;BMP_pressure;BME280_temperature;BME280_humidity;BME280_pressure;Samples;Min_cycle;Max_cycle;Signal;HPM_P1;HPM_P2
2022/04/17 00:00:52;;;;;;;5.40;3.58;;;;;;;;;;5093330;28;20241;-86
2022/04/17 00:03:21;;;;;;;5.47;3.75;;;;;;;;;;5093225;28;20192;-88
2022/04/17 00:05:49;;;;;;;6.15;4.63;;;;;;;;;;5093433;28;20200;-86
2022/04/17 00:08:17;;;;;;;4.15;3.85;;;;;;;;;;5093632;28;20189;-87
2022/04/17 00:10:46;;;;;;;4.65;3.35;;;;;;;;;;5093636;28;20227;-86
2022/04/17 00:13:15;;;;;;;3.58;3.22;;;;;;;;;;5093572;28;20208;-86
2022/04/17 00:15:43;;;;;;;7.78;4.10;;;;;;;;;;5093290;28;20254;-85
2022/04/17 00:18:12;;;;;;;3.78;3.47;;;;;;;;;;5093114;28;20210;-86
2022/04/17 00:20:40;;;;;;;4.72;4.32;;;;;;;;;;5093647;28;20200;-86
2022/04/17 00:23:07;;;;;;;4.40;3.50;;;;;;;;;;5093758;28;20207;-85
2022/04/17 00:25:35;;;;;;;3.75;3.35;;;;;;;;;;5093544;28;20220;-85
2022/04/17 00:28:02;;;;;;;4.43;3.60;;;;;;;;;;5093287;28;20200;-86
2022/04/17 00:30:29;;;;;;;4.10;3.65;;;;;;;;;;5093113;28;20255;-85
2022/04/17 00:32:57;;;;;;;5.38;4.95;;;;;;;;;;5092458;28;20207;-86
2022/04/17 00:35:25;;;;;;;4.50;3.70;;;;;;;;;;5093188;28;20718;-86
2022/04/17 00:37:53;;;;;;;4.93;3.70;;;;;;;;;;5096866;28;20699;-86
2022/04/17 00:40:21;;;;;;;4.03;3.72;;;;;;;;;;5097001;28;20212;-86
2022/04/17 00:42:48;;;;;;;5.78;4.05;;;;;;;;;;5096738;28;20196;-85
2022/04/17 00:45:16;;;;;;;5.78;5.18;;;;;;;;;;5096839;28;20269;-85
2022/04/17 00:47:43;;;;;;;4.88;3.95;;;;;;;;;;5096726;28;20207;-84
2022/04/17 00:50:11;;;;;;;4.32;3.90;;;;;;;;;;5096320;28;20277;-85
2022/04/17 00:52:40;;;;;;;4.20;3.80;;;;;;;;;;5096771;28;20208;-85
2022/04/17 00:55:10;;;;;;;5.03;4.18;;;;;;;;;;5096559;28;20224;-86
2022/04/17 00:57:38;;;;;;;3.90;3.50;;;;;;;;;;5097026;28;20206;-86
2022/04/17 01:00:07;;;;;;;4.35;3.95;;;;;;;;;;5096318;28;20196;-87
2022/04/17 01:02:34;;;;;;;3.25;2.92;;;;;;;;;;5095799;28;20204;-85
2022/04/17 01:05:02;;;;;;;4.00;3.67;;;;;;;;;;5096140;28;20223;-85
2022/04/17 01:07:29;;;;;;;3.58;3.28;;;;;;;;;;5096243;28;20200;-86
2022/04/17 01:09:58;;;;;;;5.00;4.15;;;;;;;;;;5095936;28;20227;-86
2022/04/17 01:12:25;;;;;;;4.28;3.88;;;;;;;;;;5095755;28;20204;-85
2022/04/17 01:14:52;;;;;;;5.05;3.83;;;;;;;;;;5095638;28;20216;-85
2022/04/17 01:17:20;;;;;;;3.55;2.70;;;;;;;;;;5095836;28;20206;-85
2022/04/17 01:19:47;;;;;;;3.10;2.90;;;;;;;;;;5095798;28;20208;-86
2022/04/17 01:22:16;;;;;;;3.42;3.13;;;;;;;;;;5096048;28;20208;-85
2022/04/17 01:27:28;;;;;;;3.55;3.22;;;;;;;;;;5097105;28;20188;-86
2022/04/17 01:29:55;;;;;;;4.60;3.53;;;;;;;;;;5097151;28;20251;-86
2022/04/17 01:32:24;;;;;;;4.88;4.03;;;;;;;;;;5097280;28;20226;-86
2022/04/17 01:34:52;;;;;;;4.72;4.32;;;;;;;;;;5097191;28;20220;-85
2022/04/17 01:37:21;;;;;;;4.80;4.40;;;;;;;;;;5096864;28;20200;-86
2022/04/17 01:39:48;;;;;;;5.10;4.50;;;;;;;;;;5096882;28;20200;-85
2022/04/17 01:42:16;;;;;;;6.57;4.97;;;;;;;;;;5096828;28;20206;-85
2022/04/17 01:44:44;;;;;;;4.85;4.35;;;;;;;;;;5096721;28;20219;-85
2022/04/17 01:47:12;;;;;;;5.15;4.75;;;;;;;;;;5096224;28;20201;-85
2022/04/17 01:49:40;;;;;;;5.50;5.00;;;;;;;;;;5096120;28;20201;-86
2022/04/17 01:52:09;;;;;;;6.20;4.70;;;;;;;;;;5096031;28;20220;-86
2022/04/17 01:54:37;;;;;;;5.35;4.93;;;;;;;;;;5095752;28;20221;-85
2022/04/17 01:57:05;;;;;;;6.15;5.65;;;;;;;;;;5095726;28;20200;-86
2022/04/17 01:59:32;;;;;;;4.78;4.30;;;;;;;;;;5095218;28;20219;-86
2022/04/17 02:02:00;;;;;;;4.75;4.22;;;;;;;;;;5094904;28;20713;-85
2022/04/17 02:04:32;;;;;;;5.82;4.95;;;;;;;;;;5095081;28;20255;-85
2022/04/17 02:06:59;;;;;;;5.25;4.85;;;;;;;;;;5095370;28;20337;-85
2022/04/17 02:09:27;;;;;;;6.00;5.35;;;;;;;;;;5095199;28;20207;-85
2022/04/17 02:11:55;;;;;;;5.32;4.82;;;;;;;;;;5094506;28;20224;-86
2022/04/17 02:14:23;;;;;;;6.22;5.28;;;;;;;;;;5094488;28;20633;-85
2022/04/17 02:16:50;;;;;;;5.47;4.28;;;;;;;;;;5095084;28;20199;-85
2022/04/17 02:19:19;;;;;;;4.82;4.32;;;;;;;;;;5095161;28;20212;-85
2022/04/17 02:21:46;;;;;;;6.60;4.55;;;;;;;;;;5095231;28;20196;-86
2022/04/17 02:24:13;;;;;;;5.72;4.18;;;;;;;;;;5095310;28;20224;-86
2022/04/17 02:26:41;;;;;;;3.90;3.60;;;;;;;;;;5095190;28;20193;-85
2022/04/17 02:29:09;;;;;;;4.25;3.63;;;;;;;;;;5095101;28;20200;-86
2022/04/17 02:31:37;;;;;;;4.85;4.13;;;;;;;;;;5094639;28;20216;-85
2022/04/17 02:34:06;;;;;;;4.72;3.10;;;;;;;;;;5094559;28;20227;-85
2022/04/17 02:36:34;;;;;;;4.32;3.90;;;;;;;;;;5094803;28;20207;-85
2022/04/17 02:39:01;;;;;;;4.32;3.47;;;;;;;;;;5094316;28;20208;-86
2022/04/17 02:41:28;;;;;;;4.22;3.83;;;;;;;;;;5094392;28;20192;-86
2022/04/17 02:43:56;;;;;;;3.60;3.30;;;;;;;;;;5094424;28;20220;-86
2022/04/17 02:49:09;;;;;;;3.20;2.83;;;;;;;;;;5094228;28;20594;-85
2022/04/17 02:51:37;;;;;;;4.03;3.65;;;;;;;;;;5094107;28;20227;-85
2022/04/17 02:54:04;;;;;;;3.17;2.85;;;;;;;;;;5094065;28;20216;-86
2022/04/17 02:56:33;;;;;;;4.35;3.92;;;;;;;;;;5093881;28;20204;-85
2022/04/17 02:59:01;;;;;;;4.85;4.13;;;;;;;;;;5093601;28;20203;-86
2022/04/17 03:06:59;;;;;;;4.57;4.18;;;;;;;;;;5094120;28;20218;-85
2022/04/17 03:09:26;;;;;;;4.38;3.90;;;;;;;;;;5094147;28;20222;-85
2022/04/17 03:11:53;;;;;;;3.80;3.50;;;;;;;;;;5093800;28;20224;-85
2022/04/17 03:14:21;;;;;;;3.30;3.00;;;;;;;;;;5094030;28;20227;-85
2022/04/17 03:16:49;;;;;;;4.07;3.33;;;;;;;;;;5093886;28;20542;-87
2022/04/17 03:19:17;;;;;;;4.10;3.63;;;;;;;;;;5094099;28;20208;-86
2022/04/17 03:21:44;;;;;;;5.88;3.90;;;;;;;;;;5093899;28;20212;-85
2022/04/17 03:24:12;;;;;;;6.03;4.80;;;;;;;;;;5094139;28;20224;-85
2022/04/17 03:26:41;;;;;;;4.45;4.05;;;;;;;;;;5093639;28;20200;-85
2022/04/17 03:29:08;;;;;;;5.22;4.63;;;;;;;;;;5093674;28;20207;-86
2022/04/17 03:31:35;;;;;;;4.88;4.38;;;;;;;;;;5093543;28;20787;-85
2022/04/17 03:34:05;;;;;;;5.22;4.28;;;;;;;;;;5093775;28;20591;-86
2022/04/17 03:36:32;;;;;;;6.07;5.45;;;;;;;;;;5093660;28;20206;-85
2022/04/17 03:38:59;;;;;;;6.40;5.82;;;;;;;;;;5093917;28;20207;-85
2022/04/17 03:41:27;;;;;;;6.13;5.57;;;;;;;;;;5094217;28;20200;-86
2022/04/17 03:43:54;;;;;;;6.45;5.30;;;;;;;;;;5093606;28;20712;-86
2022/04/17 03:46:21;;;;;;;6.22;5.32;;;;;;;;;;5093921;28;20204;-86
2022/04/17 03:48:49;;;;;;;6.38;5.72;;;;;;;;;;5093340;28;20200;-86
2022/04/17 03:51:17;;;;;;;8.45;6.55;;;;;;;;;;5093269;28;20224;-86
2022/04/17 03:53:45;;;;;;;7.13;6.43;;;;;;;;;;5093915;28;20227;-87
2022/04/17 03:56:12;;;;;;;5.82;5.32;;;;;;;;;;5094257;28;20637;-86
2022/04/17 03:58:39;;;;;;;6.90;5.75;;;;;;;;;;5093713;28;20207;-85
2022/04/17 04:01:07;;;;;;;5.80;4.70;;;;;;;;;;5093611;28;20207;-86
2022/04/17 04:03:34;;;;;;;5.10;4.60;;;;;;;;;;5093100;28;20626;-86
2022/04/17 04:06:02;;;;;;;5.32;4.82;;;;;;;;;;5093268;28;20239;-86
2022/04/17 04:08:30;;;;;;;5.40;4.90;;;;;;;;;;5093633;28;20204;-86
2022/04/17 04:10:57;;;;;;;7.30;5.18;;;;;;;;;;5094365;28;20196;-86
2022/04/17 04:13:25;;;;;;;6.10;5.50;;;;;;;;;;5097498;28;20223;-86
2022/04/17 04:15:55;;;;;;;5.50;4.97;;;;;;;;;;5098386;28;20211;-85
2022/04/17 04:18:22;;;;;;;7.18;5.75;;;;;;;;;;5098402;28;20653;-85
2022/04/17 04:20:50;;;;;;;5.82;5.18;;;;;;;;;;5098585;28;20571;-85
2022/04/17 04:23:20;;;;;;;5.88;5.38;;;;;;;;;;5098516;28;20199;-85
2022/04/17 04:25:49;;;;;;;6.80;5.78;;;;;;;;;;5098827;28;20188;-85
2022/04/17 04:28:36;;;;;;;6.32;5.72;;;;;;;;;;5097701;28;20257;-85
2022/04/17 04:31:05;;;;;;;5.65;4.75;;;;;;;;;;5097884;28;20647;-85
2022/04/17 04:33:32;;;;;;;6.55;5.85;;;;;;;;;;5097749;28;20229;-85
2022/04/17 04:36:00;;;;;;;5.28;4.25;;;;;;;;;;5097387;28;20219;-85
2022/04/17 04:38:28;;;;;;;5.43;4.93;;;;;;;;;;5097563;28;20207;-87
2022/04/17 04:40:57;;;;;;;4.97;4.28;;;;;;;;;;5097167;28;20203;-85
2022/04/17 04:43:24;;;;;;;5.32;4.10;;;;;;;;;;5097129;28;20200;-85
2022/04/17 04:46:09;;;;;;;5.55;3.50;;;;;;;;;;5097769;28;20216;-85
2022/04/17 04:51:39;;;;;;;4.20;3.03;;;;;;;;;;5055139;28;20343;-86
2022/04/17 04:54:07;;;;;;;3.00;2.80;;;;;;;;;;5086930;28;20573;-86
2022/04/17 04:56:35;;;;;;;3.70;3.30;;;;;;;;;;5096770;28;20197;-86
2022/04/17 04:59:04;;;;;;;3.47;3.17;;;;;;;;;;5096684;28;20211;-87
2022/04/17 05:01:31;;;;;;;4.30;3.88;;;;;;;;;;5096251;28;20267;-86
2022/04/17 05:03:58;;;;;;;3.55;3.00;;;;;;;;;;5096008;28;20627;-86
2022/04/17 05:06:26;;;;;;;2.97;2.78;;;;;;;;;;5096120;28;20203;-87
2022/04/17 05:08:53;;;;;;;3.83;3.42;;;;;;;;;;5095927;28;20204;-87
2022/04/17 05:11:20;;;;;;;4.50;3.67;;;;;;;;;;5095778;28;20200;-87
2022/04/17 05:13:49;;;;;;;6.93;3.85;;;;;;;;;;5095622;28;20228;-85
2022/04/17 05:16:16;;;;;;;3.85;3.53;;;;;;;;;;5095175;28;20667;-86
2022/04/17 05:18:45;;;;;;;4.45;3.33;;;;;;;;;;5095244;28;20606;-86
2022/04/17 05:21:13;;;;;;;6.57;4.47;;;;;;;;;;5095466;28;20683;-86
2022/04/17 05:23:40;;;;;;;6.30;5.35;;;;;;;;;;5093871;28;20601;-85
2022/04/17 05:26:08;;;;;;;5.13;4.72;;;;;;;;;;5095123;28;20584;-87
2022/04/17 05:28:35;;;;;;;4.85;4.45;;;;;;;;;;5095047;28;20679;-87
2022/04/17 05:31:04;;;;;;;4.78;4.38;;;;;;;;;;5094982;28;20207;-87
2022/04/17 05:33:31;;;;;;;5.75;5.10;;;;;;;;;;5094894;28;20250;-86
2022/04/17 05:35:59;;;;;;;6.20;5.18;;;;;;;;;;5095350;28;20212;-88
2022/04/17 05:38:26;;;;;;;5.28;4.78;;;;;;;;;;5094954;28;20242;-87
2022/04/17 05:40:54;;;;;;;6.15;5.55;;;;;;;;;;5094918;28;20204;-87
2022/04/17 05:43:21;;;;;;;5.00;4.50;;;;;;;;;;5094421;28;20196;-87
2022/04/17 05:45:49;;;;;;;6.05;5.45;;;;;;;;;;5095140;28;20205;-87
2022/04/17 05:48:18;;;;;;;6.43;5.03;;;;;;;;;;5094430;28;20617;-87
2022/04/17 05:50:46;;;;;;;5.95;5.35;;;;;;;;;;5094991;28;20622;-82
2022/04/17 05:53:14;;;;;;;5.93;5.43;;;;;;;;;;5095063;28;20223;-83
2022/04/17 05:55:42;;;;;;;6.18;5.22;;;;;;;;;;5095374;28;20636;-84
2022/04/17 05:58:09;;;;;;;5.47;4.82;;;;;;;;;;5095298;28;20231;-83
2022/04/17 06:00:36;;;;;;;5.55;4.63;;;;;;;;;;5095452;28;20653;-84
2022/04/17 06:03:05;;;;;;;5.07;4.68;;;;;;;;;;5094736;28;20197;-82
2022/04/17 06:05:33;;;;;;;5.88;4.95;;;;;;;;;;5095098;28;20640;-84
2022/04/17 06:08:01;;;;;;;4.65;3.47;;;;;;;;;;5095015;28;20215;-84
2022/04/17 06:10:28;;;;;;;4.22;3.83;;;;;;;;;;5095064;28;20203;-83
2022/04/17 06:12:55;;;;;;;4.50;4.03;;;;;;;;;;5095237;28;20220;-83
2022/04/17 06:15:23;;;;;;;4.70;4.18;;;;;;;;;;5094843;28;20227;-82
2022/04/17 06:17:50;;;;;;;5.45;4.93;;;;;;;;;;5095141;28;20200;-83
2022/04/17 06:20:17;;;;;;;5.00;3.90;;;;;;;;;;5094910;28;20212;-84
2022/04/17 06:22:46;;;;;;;5.80;5.30;;;;;;;;;;5098945;28;20204;-83
2022/04/17 06:25:14;;;;;;;6.72;6.00;;;;;;;;;;5094709;28;20237;-83
2022/04/17 06:27:43;;;;;;;8.38;7.53;;;;;;;;;;5094014;28;20617;-83
2022/04/17 06:30:12;;;;;;;8.73;7.20;;;;;;;;;;5094444;28;20202;-83
2022/04/17 06:32:41;;;;;;;8.52;6.65;;;;;;;;;;5094723;28;20211;-84
2022/04/17 06:35:10;;;;;;;9.00;7.95;;;;;;;;;;5094242;28;20257;-84
2022/04/17 06:37:50;;;;;;;8.60;7.22;;;;;;;;;;5094835;28;20206;-84
2022/04/17 06:40:19;;;;;;;8.65;7.75;;;;;;;;;;5094714;28;20196;-84
2022/04/17 06:42:47;;;;;;;10.70;7.85;;;;;;;;;;5094412;28;20203;-84
2022/04/17 06:45:15;;;;;;;7.05;6.40;;;;;;;;;;5094146;28;20227;-83
2022/04/17 06:47:42;;;;;;;7.10;6.40;;;;;;;;;;5094518;28;20207;-84
2022/04/17 06:50:10;;;;;;;5.90;5.30;;;;;;;;;;5094343;28;20216;-84
2022/04/17 06:52:38;;;;;;;7.40;6.63;;;;;;;;;;5094559;28;20204;-84
2022/04/17 06:55:11;;;;;;;5.75;5.28;;;;;;;;;;5094363;28;20220;-83
2022/04/17 06:57:40;;;;;;;5.70;5.10;;;;;;;;;;5093849;28;20204;-83
2022/04/17 07:00:10;;;;;;;6.80;6.13;;;;;;;;;;5093709;28;20200;-84
2022/04/17 07:02:37;;;;;;;7.40;6.63;;;;;;;;;;5094300;28;20188;-84
2022/04/17 07:05:07;;;;;;;7.15;6.45;;;;;;;;;;5094444;28;20220;-84
2022/04/17 07:07:34;;;;;;;8.70;7.65;;;;;;;;;;5094392;28;20249;-83
2022/04/17 07:10:02;;;;;;;7.85;6.85;;;;;;;;;;5094440;28;20207;-84
2022/04/17 07:12:31;;;;;;;8.00;7.15;;;;;;;;;;5093849;28;20236;-83
2022/04/17 07:15:00;;;;;;;7.50;6.65;;;;;;;;;;5093973;28;20224;-84
2022/04/17 07:17:35;;;;;;;8.32;7.53;;;;;;;;;;5093627;28;20207;-84
2022/04/17 07:20:05;;;;;;;6.57;5.97;;;;;;;;;;5093433;28;20689;-84
2022/04/17 07:22:32;;;;;;;5.00;4.47;;;;;;;;;;5093714;28;20188;-85
2022/04/17 07:25:01;;;;;;;5.28;4.78;;;;;;;;;;5093513;28;20220;-84
2022/04/17 07:27:34;;;;;;;6.40;5.80;;;;;;;;;;5093658;28;20204;-84
2022/04/17 07:30:02;;;;;;;5.68;4.93;;;;;;;;;;5093558;28;20188;-83
2022/04/17 07:32:30;;;;;;;5.15;4.65;;;;;;;;;;5093728;28;20254;-84
2022/04/17 07:34:57;;;;;;;5.57;4.88;;;;;;;;;;5093330;28;20259;-84
2022/04/17 07:37:28;;;;;;;6.60;5.88;;;;;;;;;;5093484;28;20204;-84
2022/04/17 07:39:55;;;;;;;5.75;5.15;;;;;;;;;;5093400;28;20990;-85
2022/04/17 07:42:23;;;;;;;5.63;4.45;;;;;;;;;;5093108;28;20656;-85
2022/04/17 07:44:51;;;;;;;5.32;4.82;;;;;;;;;;5093062;28;20220;-85
2022/04/17 07:47:19;;;;;;;4.63;4.18;;;;;;;;;;5092646;28;20188;-84
2022/04/17 07:49:46;;;;;;;5.63;5.13;;;;;;;;;;5092868;28;20311;-84
2022/04/17 07:52:14;;;;;;;5.50;4.10;;;;;;;;;;5092808;28;20204;-85
2022/04/17 07:54:41;;;;;;;6.25;4.90;;;;;;;;;;5092520;28;20216;-86
2022/04/17 07:57:13;;;;;;;5.47;4.97;;;;;;;;;;5093224;28;20215;-82
2022/04/17 07:59:41;;;;;;;5.75;5.10;;;;;;;;;;5093081;28;20609;-82
2022/04/17 08:02:22;;;;;;;4.97;4.57;;;;;;;;;;5093483;28;20270;-83
2022/04/17 08:04:51;;;;;;;4.60;4.20;;;;;;;;;;5093856;28;20307;-84
2022/04/17 08:07:19;;;;;;;4.78;3.70;;;;;;;;;;5093083;28;20199;-85
2022/04/17 08:09:46;;;;;;;4.53;3.95;;;;;;;;;;5093376;28;20280;-83
2022/04/17 08:12:14;;;;;;;3.45;3.15;;;;;;;;;;5093800;28;20204;-84
2022/04/17 08:14:41;;;;;;;4.35;4.03;;;;;;;;;;5094204;28;20687;-84
2022/04/17 08:17:10;;;;;;;5.18;4.68;;;;;;;;;;5094530;28;20208;-85
2022/04/17 08:19:37;;;;;;;3.80;3.50;;;;;;;;;;5095239;28;20244;-84
2022/04/17 08:22:05;;;;;;;4.95;3.95;;;;;;;;;;5094362;28;20203;-89
2022/04/17 08:24:32;;;;;;;4.20;3.67;;;;;;;;;;5092171;28;20217;-89
2022/04/17 08:27:00;;;;;;;3.80;3.47;;;;;;;;;;5092318;28;20196;-91
2022/04/17 08:29:28;;;;;;;3.40;3.10;;;;;;;;;;5092443;28;20223;-90
2022/04/17 08:31:55;;;;;;;3.78;3.42;;;;;;;;;;5092527;28;20772;-89
2022/04/17 08:34:24;;;;;;;3.10;2.90;;;;;;;;;;5092581;28;20310;-88
2022/04/17 08:36:51;;;;;;;3.20;2.95;;;;;;;;;;5092755;28;20204;-91
2022/04/17 08:39:18;;;;;;;2.67;2.47;;;;;;;;;;5092635;28;20205;-89
2022/04/17 08:41:47;;;;;;;3.65;3.35;;;;;;;;;;5093633;28;20196;-90
2022/04/17 08:44:15;;;;;;;3.08;2.78;;;;;;;;;;5094688;28;20270;-90
2022/04/17 08:46:42;;;;;;;2.83;2.60;;;;;;;;;;5095529;28;20197;-90
2022/04/17 08:49:11;;;;;;;2.78;2.53;;;;;;;;;;5095582;28;20188;-90
2022/04/17 08:51:42;;;;;;;2.60;2.40;;;;;;;;;;5097355;28;20637;-90
2022/04/17 08:54:10;;;;;;;2.97;2.45;;;;;;;;;;5098193;28;20240;-91
2022/04/17 08:56:37;;;;;;;2.72;2.03;;;;;;;;;;5097715;28;20192;-90
2022/04/17 08:59:05;;;;;;;2.00;1.90;;;;;;;;;;5101196;28;20526;-91
2022/04/17 09:01:36;;;;;;;2.33;2.10;;;;;;;;;;5100783;28;20200;-90
2022/04/17 09:04:04;;;;;;;2.30;2.10;;;;;;;;;;5101117;28;20212;-91
2022/04/17 09:06:31;;;;;;;3.10;2.58;;;;;;;;;;5102047;28;20196;-92
2022/04/17 09:09:02;;;;;;;2.65;2.13;;;;;;;;;;5101458;28;20200;-89
2022/04/17 09:11:30;;;;;;;2.38;2.17;;;;;;;;;;5101687;28;20196;-94
2022/04/17 09:13:59;;;;;;;3.17;2.97;;;;;;;;;;5100738;28;20227;-92
2022/04/17 09:16:28;;;;;;;1.70;1.60;;;;;;;;;;5100272;28;20227;-90
2022/04/17 09:18:55;;;;;;;2.47;2.13;;;;;;;;;;5100816;28;20245;-90
2022/04/17 09:21:34;;;;;;;1.73;1.63;;;;;;;;;;5100433;28;20578;-91
2022/04/17 09:24:21;;;;;;;2.20;2.00;;;;;;;;;;5099982;28;20298;-91
2022/04/17 09:26:54;;;;;;;1.92;1.73;;;;;;;;;;5100138;28;20196;-90
2022/04/17 09:29:25;;;;;;;2.22;1.77;;;;;;;;;;5101386;28;20192;-92
2022/04/17 09:32:00;;;;;;;1.95;1.85;;;;;;;;;;5100306;28;20210;-91
2022/04/17 09:34:29;;;;;;;1.70;1.60;;;;;;;;;;5099750;28;20231;-91
2022/04/17 09:36:58;;;;;;;2.88;2.58;;;;;;;;;;5100523;28;20280;-92
2022/04/17 09:39:33;;;;;;;2.25;2.10;;;;;;;;;;5101527;28;20212;-91
2022/04/17 09:42:02;;;;;;;1.92;1.83;;;;;;;;;;5099666;28;20634;-90
2022/04/17 09:44:49;;;;;;;2.47;2.13;;;;;;;;;;5099794;28;20216;-91
2022/04/17 09:47:20;;;;;;;1.80;1.70;;;;;;;;;;5100425;28;20196;-90
2022/04/17 09:49:58;;;;;;;1.92;1.83;;;;;;;;;;5099605;28;20212;-90
2022/04/17 09:52:28;;;;;;;1.42;1.33;;;;;;;;;;5098418;28;20188;-90
2022/04/17 09:54:57;;;;;;;2.40;2.20;;;;;;;;;;5100104;28;20224;-90
2022/04/17 09:57:30;;;;;;;2.00;1.80;;;;;;;;;;5100990;28;20208;-91
2022/04/17 09:59:58;;;;;;;1.98;1.80;;;;;;;;;;5101263;28;20216;-93
2022/04/17 10:02:26;;;;;;;2.00;1.90;;;;;;;;;;5100215;28;20196;-92
2022/04/17 10:04:54;;;;;;;2.40;2.20;;;;;;;;;;5101407;28;20216;-90
2022/04/17 10:07:24;;;;;;;2.28;2.13;;;;;;;;;;5101410;28;20192;-91
2022/04/17 10:09:52;;;;;;;2.05;1.85;;;;;;;;;;5100246;28;20290;-91
2022/04/17 10:12:22;;;;;;;2.70;2.40;;;;;;;;;;5099058;28;20200;-91
2022/04/17 10:14:52;;;;;;;2.20;2.00;;;;;;;;;;5100675;28;20226;-89
2022/04/17 10:17:21;;;;;;;1.88;1.77;;;;;;;;;;5099319;28;20207;-93
2022/04/17 10:19:49;;;;;;;2.10;1.90;;;;;;;;;;5099806;28;20271;-91
2022/04/17 10:22:21;;;;;;;2.45;2.30;;;;;;;;;;5098955;28;20203;-91
2022/04/17 10:24:52;;;;;;;2.10;2.00;;;;;;;;;;5099849;28;20633;-93
2022/04/17 10:27:25;;;;;;;2.47;2.28;;;;;;;;;;5099550;28;20228;-91
2022/04/17 10:29:57;;;;;;;2.03;1.83;;;;;;;;;;5100078;28;20204;-90
2022/04/17 10:33:17;;;;;;;2.53;2.33;;;;;;;;;;5100942;28;20196;-92
2022/04/17 10:36:06;;;;;;;2.17;1.98;;;;;;;;;;5099463;28;20212;-93
2022/04/17 10:38:46;;;;;;;2.70;2.50;;;;;;;;;;5099230;28;20207;-92
2022/04/17 10:41:14;;;;;;;3.55;2.85;;;;;;;;;;5099820;28;20239;-92
2022/04/17 10:43:59;;;;;;;2.45;2.25;;;;;;;;;;5099900;28;20251;-92
2022/04/17 10:46:27;;;;;;;2.15;1.98;;;;;;;;;;5098705;28;20203;-91
2022/04/17 10:48:57;;;;;;;2.40;2.20;;;;;;;;;;5099154;28;20196;-92
2022/04/17 10:51:27;;;;;;;2.58;2.38;;;;;;;;;;5099061;28;20203;-92
2022/04/17 10:54:05;;;;;;;1.92;1.83;;;;;;;;;;5099649;28;20239;-91
2022/04/17 10:56:35;;;;;;;2.30;2.10;;;;;;;;;;5099542;28;20212;-92
2022/04/17 10:59:06;;;;;;;2.33;2.15;;;;;;;;;;5098940;28;20188;-90
2022/04/17 11:01:54;;;;;;;2.60;2.40;;;;;;;;;;5098686;28;20677;-91
2022/04/17 11:04:27;;;;;;;3.53;3.15;;;;;;;;;;5098445;28;20212;-92
2022/04/17 11:07:22;;;;;;;2.22;2.03;;;;;;;;;;5098915;28;20189;-91
2022/04/17 11:10:04;;;;;;;2.30;2.00;;;;;;;;;;5098536;28;20661;-91
2022/04/17 11:12:32;;;;;;;2.05;1.70;;;;;;;;;;5098126;28;20257;-90
2022/04/17 11:15:28;;;;;;;1.60;1.50;;;;;;;;;;5097599;28;20231;-92
2022/04/17 11:18:00;;;;;;;3.50;2.78;;;;;;;;;;5096944;28;20192;-92
2022/04/17 11:20:29;;;;;;;1.73;1.63;;;;;;;;;;5095722;28;20183;-92
2022/04/17 11:22:57;;;;;;;1.73;1.63;;;;;;;;;;5095608;28;20570;-90
2022/04/17 11:25:29;;;;;;;2.47;2.28;;;;;;;;;;5095742;28;20247;-90
2022/04/17 11:28:02;;;;;;;2.15;1.98;;;;;;;;;;5096806;28;20192;-91
2022/04/17 11:30:35;;;;;;;1.75;1.65;;;;;;;;;;5097153;28;20196;-90
2022/04/17 11:33:08;;;;;;;1.63;1.52;;;;;;;;;;5095671;28;20193;-91
2022/04/17 11:35:36;;;;;;;1.60;1.50;;;;;;;;;;5095162;28;20685;-91
2022/04/17 11:38:07;;;;;;;1.45;1.35;;;;;;;;;;5096822;28;20197;-90
2022/04/17 11:40:37;;;;;;;2.03;1.88;;;;;;;;;;5097026;28;20207;-91
2022/04/17 11:43:14;;;;;;;2.08;1.98;;;;;;;;;;5097799;28;20528;-90
2022/04/17 11:45:44;;;;;;;1.80;1.70;;;;;;;;;;5097445;28;20180;-90
2022/04/17 11:48:12;;;;;;;1.63;1.48;;;;;;;;;;5097879;28;20204;-91
2022/04/17 11:50:41;;;;;;;3.47;1.60;;;;;;;;;;5097978;28;20299;-91
2022/04/17 11:53:12;;;;;;;1.38;1.27;;;;;;;;;;5098160;28;20199;-91
2022/04/17 11:55:41;;;;;;;1.17;1.17;;;;;;;;;;5097059;28;20219;-89
2022/04/17 11:58:13;;;;;;;1.45;1.35;;;;;;;;;;5096685;28;20200;-91
2022/04/17 12:00:42;;;;;;;1.88;1.70;;;;;;;;;;5097200;28;20218;-91
2022/04/17 12:03:11;;;;;;;1.27;1.17;;;;;;;;;;5098103;28;20208;-87
2022/04/17 12:05:39;;;;;;;1.77;1.65;;;;;;;;;;5095051;28;20196;-87
2022/04/17 12:08:09;;;;;;;1.75;1.65;;;;;;;;;;5095695;28;20284;-87
2022/04/17 12:10:39;;;;;;;1.52;1.42;;;;;;;;;;5094254;28;20233;-87
2022/04/17 12:13:18;;;;;;;1.60;1.50;;;;;;;;;;5094929;28;20233;-86
2022/04/17 12:15:58;;;;;;;1.77;1.67;;;;;;;;;;5095275;28;20263;-88
2022/04/17 12:18:26;;;;;;;1.70;1.60;;;;;;;;;;5094832;28;20180;-88
2022/04/17 12:21:02;;;;;;;2.08;1.88;;;;;;;;;;5094874;28;20200;-87
2022/04/17 12:23:32;;;;;;;1.80;1.70;;;;;;;;;;5094888;28;20180;-87
2022/04/17 12:26:00;;;;;;;1.50;1.40;;;;;;;;;;5096777;28;20246;-86
2022/04/17 12:28:28;;;;;;;1.98;1.85;;;;;;;;;;5096321;28;20201;-86
2022/04/17 12:30:57;;;;;;;2.10;1.90;;;;;;;;;;5095678;28;20583;-87
2022/04/17 12:33:27;;;;;;;2.55;1.75;;;;;;;;;;5098436;28;20200;-88
2022/04/17 12:36:08;;;;;;;2.92;2.20;;;;;;;;;;5098492;28;20208;-87
2022/04/17 12:38:37;;;;;;;2.20;2.00;;;;;;;;;;5097637;28;20552;-85
2022/04/17 12:41:19;;;;;;;2.17;1.98;;;;;;;;;;5097447;28;20235;-87
2022/04/17 12:43:49;;;;;;;2.85;2.25;;;;;;;;;;5097775;28;20212;-86
2022/04/17 12:46:26;;;;;;;2.45;1.90;;;;;;;;;;5098319;28;20189;-88
2022/04/17 12:49:08;;;;;;;1.85;1.75;;;;;;;;;;5097383;28;20180;-86
2022/04/17 12:51:36;;;;;;;2.10;1.90;;;;;;;;;;5101113;28;20192;-85
2022/04/17 12:54:05;;;;;;;1.95;1.20;;;;;;;;;;5101971;28;20215;-86
2022/04/17 12:57:02;;;;;;;1.65;1.55;;;;;;;;;;5101280;28;20277;-84
2022/04/17 12:59:41;;;;;;;1.35;1.25;;;;;;;;;;5101483;28;20187;-84
2022/04/17 13:02:15;;;;;;;2.22;2.05;;;;;;;;;;5100153;28;20184;-87
2022/04/17 13:04:43;;;;;;;3.42;1.85;;;;;;;;;;5097762;28;20223;-87
2022/04/17 13:07:13;;;;;;;1.67;1.58;;;;;;;;;;5099346;28;20599;-85
2022/04/17 13:09:51;;;;;;;1.58;1.48;;;;;;;;;;5099822;28;20192;-85
2022/04/17 13:12:40;;;;;;;1.40;1.30;;;;;;;;;;5098594;28;20564;-86
2022/04/17 13:15:09;;;;;;;1.40;1.30;;;;;;;;;;5100520;28;20247;-87
2022/04/17 13:17:51;;;;;;;1.50;1.40;;;;;;;;;;5102473;28;20220;-86
2022/04/17 13:20:20;;;;;;;2.25;2.08;;;;;;;;;;5101781;28;20208;-85
2022/04/17 13:22:49;;;;;;;2.00;1.55;;;;;;;;;;5101831;28;20215;-86
2022/04/17 13:25:19;;;;;;;2.70;1.88;;;;;;;;;;5101563;28;20571;-85
2022/04/17 13:27:58;;;;;;;1.40;1.30;;;;;;;;;;5101892;28;20187;-84
2022/04/17 13:30:26;;;;;;;1.20;1.13;;;;;;;;;;5101579;28;20200;-86
2022/04/17 13:32:54;;;;;;;1.60;1.50;;;;;;;;;;5101223;28;20613;-84
2022/04/17 13:35:22;;;;;;;1.50;1.40;;;;;;;;;;5099564;28;20231;-86
2022/04/17 13:40:36;;;;;;;1.77;1.67;;;;;;;;;;5097696;28;20187;-86
2022/04/17 13:43:03;;;;;;;1.80;1.55;;;;;;;;;;5097267;28;20235;-87
2022/04/17 13:45:31;;;;;;;1.25;1.20;;;;;;;;;;5097036;28;20224;-87
2022/04/17 13:48:01;;;;;;;1.55;1.45;;;;;;;;;;5097761;28;20249;-87
2022/04/17 13:50:39;;;;;;;1.50;1.40;;;;;;;;;;5097319;28;20207;-87
2022/04/17 13:53:09;;;;;;;1.20;1.10;;;;;;;;;;5097604;28;20184;-87
2022/04/17 13:55:37;;;;;;;2.10;2.00;;;;;;;;;;5097189;28;20276;-87
2022/04/17 13:58:05;;;;;;;1.42;1.33;;;;;;;;;;5097622;28;20709;-88
2022/04/17 14:00:32;;;;;;;1.85;1.73;;;;;;;;;;5096989;28;20196;-86
2022/04/17 14:03:01;;;;;;;1.60;1.50;;;;;;;;;;5097600;28;20322;-86
2022/04/17 14:05:29;;;;;;;1.83;1.70;;;;;;;;;;5096755;28;20738;-87
2022/04/17 14:07:58;;;;;;;1.63;1.52;;;;;;;;;;5097433;28;20187;-88
2022/04/17 14:10:26;;;;;;;2.60;2.25;;;;;;;;;;5097072;28;20193;-88
2022/04/17 14:12:53;;;;;;;1.40;1.30;;;;;;;;;;5097602;28;20204;-89
2022/04/17 14:15:22;;;;;;;1.85;1.73;;;;;;;;;;5097901;28;20696;-87
2022/04/17 14:17:49;;;;;;;1.73;1.63;;;;;;;;;;5100692;28;20221;-88
2022/04/17 14:20:18;;;;;;;1.95;1.85;;;;;;;;;;5097255;28;20291;-85
2022/04/17 14:22:46;;;;;;;2.28;1.48;;;;;;;;;;5096422;28;20208;-86
2022/04/17 14:25:13;;;;;;;1.90;1.80;;;;;;;;;;5096787;28;20216;-86
2022/04/17 14:27:40;;;;;;;1.70;1.60;;;;;;;;;;5097085;28;20184;-88
2022/04/17 14:30:09;;;;;;;2.40;2.13;;;;;;;;;;5096537;28;20564;-88
2022/04/17 14:32:36;;;;;;;3.30;1.20;;;;;;;;;;5097055;28;20450;-87
2022/04/17 14:35:04;;;;;;;1.83;1.73;;;;;;;;;;5096372;28;20731;-87
2022/04/17 14:37:34;;;;;;;2.85;2.58;;;;;;;;;;5095858;28;20267;-87
2022/04/17 14:40:01;;;;;;;1.70;1.60;;;;;;;;;;5096779;28;20200;-88
2022/04/17 14:42:28;;;;;;;1.85;1.75;;;;;;;;;;5096154;28;20626;-88
2022/04/17 14:44:58;;;;;;;1.67;1.58;;;;;;;;;;5095508;28;20213;-87
2022/04/17 14:47:26;;;;;;;2.55;1.48;;;;;;;;;;5096840;28;20233;-87
2022/04/17 14:49:53;;;;;;;2.03;1.70;;;;;;;;;;5095407;28;20208;-87
2022/04/17 14:52:21;;;;;;;1.40;1.30;;;;;;;;;;5095191;28;20196;-87
2022/04/17 14:54:50;;;;;;;1.60;1.50;;;;;;;;;;5095396;28;20219;-87
2022/04/17 14:57:18;;;;;;;1.50;1.40;;;;;;;;;;5096443;28;20181;-87
2022/04/17 14:59:46;;;;;;;1.70;1.60;;;;;;;;;;5097102;28;20220;-86
2022/04/17 15:02:14;;;;;;;1.70;1.60;;;;;;;;;;5096880;28;20204;-86
2022/04/17 15:04:41;;;;;;;1.52;1.42;;;;;;;;;;5097316;28;20247;-86
2022/04/17 15:07:09;;;;;;;1.25;1.13;;;;;;;;;;5097787;28;20268;-86
2022/04/17 15:09:36;;;;;;;1.67;1.58;;;;;;;;;;5096105;28;20181;-86
2022/04/17 15:12:06;;;;;;;1.60;1.50;;;;;;;;;;5100642;28;20211;-85
2022/04/17 15:14:34;;;;;;;1.40;1.30;;;;;;;;;;5096255;28;20216;-86